Hauptseite
METAR-TAF:

METAR-TAF

Flughäfen :

Flughafen Brüssel-Zaventem

Brüssel, Belgien

Breite: 50-54N, Länge: 004-32E, Höhe: 55 m

Beobachtung

Neuester Wetterbericht von vor 25 Minuten, um 18:20 UTC
Wind 6 kt aus Nord/Nordost
Temperatur 27°C
Luftfeuchtigkeit 34%
Luftdruck 1014 hPa
Sichtweite 10 km oder mehr
keine Wolken unter 1500 m und keine Kumulonimbus oder Gewitterwolken

METAR: EBBR 151820Z 03006KT CAVOK 27/10 Q1014 NOSIG

Zeit: 20:45 (18:45 UTC)

Prognose

Neuester Wetterbericht von vor 1 Stunde und 45 Minuten, um 17:00 UTC
Gültige Prognose vom 15 um 18 UTC bis 16 um 24 UTC
Wind 4 kt aus Nord/Nordost
Sichtweite 10 km oder mehr
Leicht bewölkt in der Höhe von 4500 ft
Wahrscheinlichkeit 30% :
Zeitweise
vom 16 um 17 UTC bis 16 um 22 UTC
Sichtweite: 3000 m
Gewitter, Regen

TAF: EBBR 151700Z 1518/1624 03004KT 9999 FEW045 PROB30 TEMPO 1617/1622 3000 TSRA

Wetterbeobachtungen und Prognosen von mehr als 4000 Flughäfen (METAR und TAF Bericht).

Die verfügbaren Stationen werden durch gelbe und rote Markierungen auf der Karte dargestellt.

Führen Sie die Maus auf sie, um den Namen der Station zu sehen.

Darauf klicken, um die Beobachtung von Wetterbeobachtungen und Prognosen zu sehen.

Um die Karte zu ändern : klicken Sie auf den grünen Tasten mit einem schwarzen Kreuz Zum Vergrößern, auf den grünen Button mit einem Gedankenstrich zu verkleinern, oder auf die grünen Pfeile für benachbarte Karten.


METAR-TAF: